Stevenson, AL (35772)

6:58 AM CST on February 09, 2016 (GMT -0600)
Richard City | | Change Station
CLOSE
Current Station
Personal Weather Station
Location: South Pittsburg, TN
Elevation: 630 ft
Nearby Weather Stations
Active Advisory: Winter Weather Advisory

Elev 630 ft 34.99 °N, 85.73 °W | Updated 10 seconds ago

Snow
Snow
29.5 °F
Feels Like 30 °F
N
0.0
Wind Variable Wind from SSE
Gusts 0.0 mph

Today
High -- | Low -- °F
--% Chance of Precip.
Yesterday
High -- | Low -- °F
Precip. -- in
Pressure 29.88 in
Visibility 5.0 miles
Clouds Scattered Clouds 3000 ft
Overcast 3900 ft
Windchill 30 °F
Dew Point 21 °F
Humidity 70%
Rainfall 0.00 in
Snow Depth Not available.
6:35 AM 5:19 PM
New Moon, 1% visible
METAR K4A6 091235Z AUTO 30003KT 5SM -SN SCT030 OVC039 00/M05 A2988 RMK AO2
Pressure 29.88 in
Visibility 5.0 miles
Clouds Scattered Clouds 3000 ft
Overcast 3900 ft
Windchill 30 °F
Dew Point 21 °F
Humidity 70%
Rainfall 0.00 in
Snow Depth Not available.
6:35 AM 5:19 PM
New Moon, 1% visible
METAR K4A6 091235Z AUTO 30003KT 5SM -SN SCT030 OVC039 00/M05 A2988 RMK AO2

10-Day Weather Forecast

Almanac

Astronomy

Feb. 09, 2016 Rise Set
Actual Time
Civil Twilight
Nautical Twilight
Astronomical Twilight
Moon
Length of Visible Light
Length of Day
Tomorrow will be .
, % of the Moon is Illuminated

Today's Extremes

State Highs State Lows

Community

WunderPhotos

Upload Photos

1,891,589 photos uploaded!

WunderBlog® & News

Nearby

Air Quality

  Air Quality AQ Index Pollutant
Not available.

Snow Depth

Station Depth Elevation

Earthquake Activity

City Distance Mag. Time & Date
Minimum magnitude displayed is 2.5.

Coastal Water Temperatures

Place Temperature

Stations

Nearby Weather Stations

Station Location Temp. Windchill Dew Point Humidity Wind Precip. Elev Updated Type
                   

Watches & Warnings

Winter Weather Advisory
Issued: 3:22 AM CST Feb. 9, 2016 – National Weather Service

... Winter Weather Advisory remains in effect until 6 PM CST this
evening...

* accumulations... up to 2 inches in higher elevations with around an
inch elsewhere.

* Impacts... motorists should plan their travels accordingly and
be prepared to encounter some slippery spots on elevated
bridges and overpasses and secondary roads.

Precautionary/preparedness actions...

A Winter Weather Advisory for snow means that periods of snow
will cause primarily travel difficulties. Be prepared for snow
covered roads and limited visibilities... and use caution while
driving.